sensor_id;sensor_type;location;lat;lon;timestamp;P1;durP1;ratioP1;P2;durP2;ratioP2
69989;SDS011;57331;52.054;5.294;2023-04-29T00:00:06;35.00;;;15.77;;
69989;SDS011;57331;52.054;5.294;2023-04-29T00:02:39;42.47;;;16.45;;
69989;SDS011;57331;52.054;5.294;2023-04-29T00:05:07;47.77;;;18.17;;
69989;SDS011;57331;52.054;5.294;2023-04-29T00:07:35;44.92;;;16.95;;
69989;SDS011;57331;52.054;5.294;2023-04-29T00:10:03;44.53;;;17.80;;
69989;SDS011;57331;52.054;5.294;2023-04-29T00:12:30;43.97;;;16.63;;
69989;SDS011;57331;52.054;5.294;2023-04-29T00:14:58;41.55;;;17.42;;
69989;SDS011;57331;52.054;5.294;2023-04-29T00:17:28;44.20;;;17.43;;
69989;SDS011;57331;52.054;5.294;2023-04-29T00:19:55;43.92;;;17.40;;
69989;SDS011;57331;52.054;5.294;2023-04-29T00:22:22;45.63;;;18.63;;
69989;SDS011;57331;52.054;5.294;2023-04-29T00:24:50;46.28;;;17.92;;
69989;SDS011;57331;52.054;5.294;2023-04-29T00:27:18;50.55;;;20.27;;
69989;SDS011;57331;52.054;5.294;2023-04-29T00:29:45;44.80;;;18.90;;
69989;SDS011;57331;52.054;5.294;2023-04-29T00:32:13;49.40;;;19.00;;
69989;SDS011;57331;52.054;5.294;2023-04-29T00:34:40;48.88;;;19.58;;
69989;SDS011;57331;52.054;5.294;2023-04-29T00:37:08;53.95;;;20.05;;
69989;SDS011;57331;52.054;5.294;2023-04-29T00:39:35;52.72;;;19.27;;
69989;SDS011;57331;52.054;5.294;2023-04-29T00:42:02;49.33;;;20.30;;
69989;SDS011;57331;52.054;5.294;2023-04-29T00:44:29;48.00;;;19.35;;
69989;SDS011;57331;52.054;5.294;2023-04-29T00:46:57;49.88;;;18.25;;
69989;SDS011;57331;52.054;5.294;2023-04-29T00:49:24;49.40;;;19.08;;
69989;SDS011;57331;52.054;5.294;2023-04-29T00:51:53;50.38;;;20.88;;
69989;SDS011;57331;52.054;5.294;2023-04-29T00:54:23;44.93;;;17.93;;
69989;SDS011;57331;52.054;5.294;2023-04-29T00:56:51;49.42;;;18.27;;
69989;SDS011;57331;52.054;5.294;2023-04-29T00:59:20;51.47;;;20.08;;
69989;SDS011;57331;52.054;5.294;2023-04-29T01:01:48;59.65;;;21.33;;
69989;SDS011;57331;52.054;5.294;2023-04-29T01:04:15;51.28;;;20.80;;
69989;SDS011;57331;52.054;5.294;2023-04-29T01:17:30;50.63;;;18.50;;
69989;SDS011;57331;52.054;5.294;2023-04-29T01:20:09;48.23;;;17.93;;
69989;SDS011;57331;52.054;5.294;2023-04-29T01:22:37;41.10;;;18.05;;
69989;SDS011;57331;52.054;5.294;2023-04-29T01:25:05;38.30;;;16.35;;
69989;SDS011;57331;52.054;5.294;2023-04-29T01:30:17;41.92;;;17.70;;
69989;SDS011;57331;52.054;5.294;2023-04-29T01:35:57;45.92;;;18.00;;
69989;SDS011;57331;52.054;5.294;2023-04-29T01:38:41;41.75;;;17.85;;
69989;SDS011;57331;52.054;5.294;2023-04-29T01:41:10;44.78;;;17.25;;
69989;SDS011;57331;52.054;5.294;2023-04-29T01:43:49;28.50;;;13.05;;
69989;SDS011;57331;52.054;5.294;2023-04-29T01:46:22;37.03;;;17.33;;
69989;SDS011;57331;52.054;5.294;2023-04-29T01:48:54;35.60;;;16.13;;
69989;SDS011;57331;52.054;5.294;2023-04-29T01:51:22;39.42;;;16.60;;
69989;SDS011;57331;52.054;5.294;2023-04-29T01:53:49;36.80;;;16.25;;
69989;SDS011;57331;52.054;5.294;2023-04-29T01:56:17;38.08;;;15.45;;
69989;SDS011;57331;52.054;5.294;2023-04-29T01:59:04;35.37;;;15.67;;
69989;SDS011;57331;52.054;5.294;2023-04-29T02:01:51;35.65;;;15.73;;
69989;SDS011;57331;52.054;5.294;2023-04-29T02:04:19;34.50;;;15.63;;
69989;SDS011;57331;52.054;5.294;2023-04-29T02:06:46;37.80;;;16.17;;
69989;SDS011;57331;52.054;5.294;2023-04-29T02:09:15;32.20;;;14.52;;
69989;SDS011;57331;52.054;5.294;2023-04-29T02:11:48;39.50;;;15.60;;
69989;SDS011;57331;52.054;5.294;2023-04-29T02:14:15;34.97;;;15.80;;
69989;SDS011;57331;52.054;5.294;2023-04-29T02:16:43;30.60;;;14.40;;
69989;SDS011;57331;52.054;5.294;2023-04-29T02:19:12;38.20;;;15.50;;
69989;SDS011;57331;52.054;5.294;2023-04-29T02:21:39;38.75;;;16.58;;
69989;SDS011;57331;52.054;5.294;2023-04-29T02:24:06;34.63;;;14.83;;
69989;SDS011;57331;52.054;5.294;2023-04-29T02:26:34;33.97;;;15.25;;
69989;SDS011;57331;52.054;5.294;2023-04-29T02:29:03;36.63;;;15.55;;
69989;SDS011;57331;52.054;5.294;2023-04-29T02:31:31;35.72;;;14.75;;
69989;SDS011;57331;52.054;5.294;2023-04-29T02:33:58;34.25;;;14.25;;
69989;SDS011;57331;52.054;5.294;2023-04-29T02:36:25;34.50;;;13.73;;
69989;SDS011;57331;52.054;5.294;2023-04-29T02:38:53;34.42;;;15.05;;
69989;SDS011;57331;52.054;5.294;2023-04-29T02:41:21;34.35;;;15.77;;
69989;SDS011;57331;52.054;5.294;2023-04-29T02:43:48;30.27;;;14.65;;
69989;SDS011;57331;52.054;5.294;2023-04-29T02:46:16;37.55;;;15.07;;
69989;SDS011;57331;52.054;5.294;2023-04-29T02:48:44;35.87;;;15.40;;
69989;SDS011;57331;52.054;5.294;2023-04-29T02:51:12;36.03;;;15.68;;
69989;SDS011;57331;52.054;5.294;2023-04-29T02:53:39;37.20;;;16.13;;
69989;SDS011;57331;52.054;5.294;2023-04-29T02:56:07;36.47;;;15.10;;
69989;SDS011;57331;52.054;5.294;2023-04-29T02:58:34;34.45;;;14.60;;
69989;SDS011;57331;52.054;5.294;2023-04-29T03:01:01;32.73;;;14.20;;
69989;SDS011;57331;52.054;5.294;2023-04-29T03:03:30;33.20;;;14.60;;
69989;SDS011;57331;52.054;5.294;2023-04-29T03:05:57;33.40;;;14.85;;
69989;SDS011;57331;52.054;5.294;2023-04-29T03:08:25;33.90;;;14.80;;
69989;SDS011;57331;52.054;5.294;2023-04-29T03:10:53;34.67;;;14.57;;
69989;SDS011;57331;52.054;5.294;2023-04-29T03:13:21;31.83;;;14.10;;
69989;SDS011;57331;52.054;5.294;2023-04-29T03:15:49;33.10;;;13.60;;
69989;SDS011;57331;52.054;5.294;2023-04-29T03:18:16;31.15;;;14.02;;
69989;SDS011;57331;52.054;5.294;2023-04-29T03:20:43;31.38;;;14.30;;
69989;SDS011;57331;52.054;5.294;2023-04-29T03:23:10;31.73;;;14.50;;
69989;SDS011;57331;52.054;5.294;2023-04-29T03:25:38;28.83;;;13.10;;
69989;SDS011;57331;52.054;5.294;2023-04-29T03:28:05;32.75;;;13.93;;
69989;SDS011;57331;52.054;5.294;2023-04-29T03:30:33;37.00;;;13.82;;
69989;SDS011;57331;52.054;5.294;2023-04-29T03:33:01;33.85;;;13.77;;
69989;SDS011;57331;52.054;5.294;2023-04-29T03:35:29;32.35;;;14.48;;
69989;SDS011;57331;52.054;5.294;2023-04-29T03:38:15;33.53;;;13.80;;
69989;SDS011;57331;52.054;5.294;2023-04-29T03:40:43;33.47;;;14.80;;
69989;SDS011;57331;52.054;5.294;2023-04-29T03:43:10;34.13;;;14.52;;
69989;SDS011;57331;52.054;5.294;2023-04-29T03:45:39;29.90;;;14.48;;
69989;SDS011;57331;52.054;5.294;2023-04-29T03:48:07;32.60;;;14.18;;
69989;SDS011;57331;52.054;5.294;2023-04-29T03:50:35;33.43;;;15.70;;
69989;SDS011;57331;52.054;5.294;2023-04-29T03:53:02;33.60;;;15.15;;
69989;SDS011;57331;52.054;5.294;2023-04-29T03:55:30;34.75;;;14.63;;
69989;SDS011;57331;52.054;5.294;2023-04-29T03:57:57;40.83;;;14.32;;
69989;SDS011;57331;52.054;5.294;2023-04-29T04:00:25;36.47;;;14.60;;
69989;SDS011;57331;52.054;5.294;2023-04-29T04:02:57;32.13;;;13.60;;
69989;SDS011;57331;52.054;5.294;2023-04-29T04:05:26;34.60;;;14.48;;
69989;SDS011;57331;52.054;5.294;2023-04-29T04:07:58;33.97;;;14.23;;
69989;SDS011;57331;52.054;5.294;2023-04-29T04:10:34;35.25;;;14.90;;
69989;SDS011;57331;52.054;5.294;2023-04-29T04:13:08;36.70;;;14.82;;
69989;SDS011;57331;52.054;5.294;2023-04-29T04:15:35;39.77;;;14.30;;
69989;SDS011;57331;52.054;5.294;2023-04-29T04:18:03;30.15;;;14.23;;
69989;SDS011;57331;52.054;5.294;2023-04-29T04:20:30;30.80;;;14.00;;
69989;SDS011;57331;52.054;5.294;2023-04-29T04:22:57;32.58;;;14.32;;
69989;SDS011;57331;52.054;5.294;2023-04-29T04:25:27;37.92;;;14.52;;
69989;SDS011;57331;52.054;5.294;2023-04-29T04:28:04;34.73;;;14.47;;
69989;SDS011;57331;52.054;5.294;2023-04-29T04:30:48;36.28;;;14.80;;
69989;SDS011;57331;52.054;5.294;2023-04-29T04:33:16;29.98;;;14.70;;
69989;SDS011;57331;52.054;5.294;2023-04-29T04:35:44;32.92;;;13.98;;
69989;SDS011;57331;52.054;5.294;2023-04-29T04:38:12;29.08;;;13.57;;
69989;SDS011;57331;52.054;5.294;2023-04-29T04:40:40;24.67;;;12.80;;
69989;SDS011;57331;52.054;5.294;2023-04-29T04:43:28;29.58;;;13.32;;
69989;SDS011;57331;52.054;5.294;2023-04-29T04:45:55;29.15;;;12.77;;
69989;SDS011;57331;52.054;5.294;2023-04-29T04:48:23;26.23;;;11.70;;
69989;SDS011;57331;52.054;5.294;2023-04-29T04:50:51;25.30;;;13.00;;
69989;SDS011;57331;52.054;5.294;2023-04-29T04:53:18;29.03;;;12.90;;
69989;SDS011;57331;52.054;5.294;2023-04-29T04:55:54;25.55;;;11.15;;
69989;SDS011;57331;52.054;5.294;2023-04-29T04:58:27;25.70;;;11.13;;
69989;SDS011;57331;52.054;5.294;2023-04-29T05:00:57;23.92;;;11.43;;
69989;SDS011;57331;52.054;5.294;2023-04-29T05:03:24;21.25;;;10.90;;
69989;SDS011;57331;52.054;5.294;2023-04-29T05:05:56;20.67;;;9.97;;
69989;SDS011;57331;52.054;5.294;2023-04-29T05:08:24;20.77;;;10.57;;
69989;SDS011;57331;52.054;5.294;2023-04-29T05:10:53;21.15;;;11.23;;
69989;SDS011;57331;52.054;5.294;2023-04-29T05:13:21;22.33;;;10.93;;
69989;SDS011;57331;52.054;5.294;2023-04-29T05:15:48;22.08;;;9.93;;
69989;SDS011;57331;52.054;5.294;2023-04-29T05:18:19;20.77;;;11.40;;
69989;SDS011;57331;52.054;5.294;2023-04-29T05:20:49;18.08;;;9.82;;
69989;SDS011;57331;52.054;5.294;2023-04-29T05:23:16;18.05;;;10.07;;
69989;SDS011;57331;52.054;5.294;2023-04-29T05:25:45;17.33;;;9.27;;
69989;SDS011;57331;52.054;5.294;2023-04-29T05:28:15;20.55;;;10.73;;
69989;SDS011;57331;52.054;5.294;2023-04-29T05:30:43;17.70;;;10.10;;
69989;SDS011;57331;52.054;5.294;2023-04-29T05:33:11;25.13;;;10.88;;
69989;SDS011;57331;52.054;5.294;2023-04-29T05:35:38;19.35;;;9.82;;
69989;SDS011;57331;52.054;5.294;2023-04-29T05:38:05;19.63;;;9.65;;
69989;SDS011;57331;52.054;5.294;2023-04-29T05:40:51;16.15;;;8.93;;
69989;SDS011;57331;52.054;5.294;2023-04-29T05:43:39;18.43;;;8.87;;
69989;SDS011;57331;52.054;5.294;2023-04-29T05:46:07;17.30;;;9.60;;
69989;SDS011;57331;52.054;5.294;2023-04-29T05:48:34;17.48;;;9.38;;
69989;SDS011;57331;52.054;5.294;2023-04-29T05:51:01;22.33;;;10.85;;
69989;SDS011;57331;52.054;5.294;2023-04-29T05:53:29;16.40;;;9.48;;
69989;SDS011;57331;52.054;5.294;2023-04-29T05:55:56;17.17;;;10.17;;
69989;SDS011;57331;52.054;5.294;2023-04-29T05:58:24;17.70;;;9.07;;
69989;SDS011;57331;52.054;5.294;2023-04-29T06:00:51;17.35;;;8.90;;
69989;SDS011;57331;52.054;5.294;2023-04-29T06:03:23;16.88;;;8.35;;
69989;SDS011;57331;52.054;5.294;2023-04-29T06:06:01;17.65;;;8.75;;
69989;SDS011;57331;52.054;5.294;2023-04-29T06:08:44;29.13;;;14.37;;
69989;SDS011;57331;52.054;5.294;2023-04-29T06:11:15;31.88;;;14.88;;
69989;SDS011;57331;52.054;5.294;2023-04-29T06:13:42;20.55;;;9.43;;
69989;SDS011;57331;52.054;5.294;2023-04-29T06:16:10;20.33;;;8.90;;
69989;SDS011;57331;52.054;5.294;2023-04-29T06:18:37;20.02;;;9.18;;
69989;SDS011;57331;52.054;5.294;2023-04-29T06:21:05;16.67;;;9.20;;
69989;SDS011;57331;52.054;5.294;2023-04-29T06:23:32;16.95;;;8.73;;
69989;SDS011;57331;52.054;5.294;2023-04-29T06:26:03;19.25;;;9.68;;
69989;SDS011;57331;52.054;5.294;2023-04-29T06:28:30;23.58;;;10.27;;
69989;SDS011;57331;52.054;5.294;2023-04-29T06:30:57;19.70;;;10.20;;
69989;SDS011;57331;52.054;5.294;2023-04-29T06:33:25;18.97;;;9.63;;
69989;SDS011;57331;52.054;5.294;2023-04-29T06:35:53;19.15;;;10.57;;
69989;SDS011;57331;52.054;5.294;2023-04-29T06:38:40;25.33;;;11.07;;
69989;SDS011;57331;52.054;5.294;2023-04-29T06:41:28;23.48;;;10.68;;
69989;SDS011;57331;52.054;5.294;2023-04-29T06:44:22;23.75;;;11.18;;
69989;SDS011;57331;52.054;5.294;2023-04-29T06:47:09;25.50;;;11.97;;
69989;SDS011;57331;52.054;5.294;2023-04-29T06:50:06;26.20;;;11.43;;
69989;SDS011;57331;52.054;5.294;2023-04-29T06:52:35;23.70;;;11.32;;
69989;SDS011;57331;52.054;5.294;2023-04-29T06:55:02;24.40;;;11.10;;
69989;SDS011;57331;52.054;5.294;2023-04-29T06:57:29;23.45;;;10.38;;
69989;SDS011;57331;52.054;5.294;2023-04-29T06:59:57;22.20;;;11.07;;
69989;SDS011;57331;52.054;5.294;2023-04-29T07:02:24;22.83;;;9.98;;
69989;SDS011;57331;52.054;5.294;2023-04-29T07:04:52;20.58;;;9.95;;
69989;SDS011;57331;52.054;5.294;2023-04-29T07:07:19;24.75;;;10.52;;
69989;SDS011;57331;52.054;5.294;2023-04-29T07:09:47;20.33;;;9.45;;
69989;SDS011;57331;52.054;5.294;2023-04-29T07:12:18;17.53;;;8.40;;
69989;SDS011;57331;52.054;5.294;2023-04-29T07:14:46;19.73;;;9.63;;
69989;SDS011;57331;52.054;5.294;2023-04-29T07:17:13;19.45;;;8.75;;
69989;SDS011;57331;52.054;5.294;2023-04-29T07:19:41;16.65;;;8.68;;
69989;SDS011;57331;52.054;5.294;2023-04-29T07:22:09;18.48;;;9.07;;
69989;SDS011;57331;52.054;5.294;2023-04-29T07:24:36;22.70;;;9.17;;
69989;SDS011;57331;52.054;5.294;2023-04-29T07:27:03;20.92;;;8.15;;
69989;SDS011;57331;52.054;5.294;2023-04-29T07:29:30;18.08;;;8.75;;
69989;SDS011;57331;52.054;5.294;2023-04-29T07:31:58;18.67;;;8.32;;
69989;SDS011;57331;52.054;5.294;2023-04-29T07:34:26;19.50;;;9.23;;
69989;SDS011;57331;52.054;5.294;2023-04-29T07:36:53;15.97;;;7.93;;
69989;SDS011;57331;52.054;5.294;2023-04-29T07:39:21;20.63;;;9.60;;
69989;SDS011;57331;52.054;5.294;2023-04-29T07:41:53;17.83;;;9.40;;
69989;SDS011;57331;52.054;5.294;2023-04-29T07:44:20;17.08;;;8.30;;
69989;SDS011;57331;52.054;5.294;2023-04-29T07:46:48;16.38;;;8.48;;
69989;SDS011;57331;52.054;5.294;2023-04-29T07:49:15;20.77;;;9.40;;
69989;SDS011;57331;52.054;5.294;2023-04-29T07:51:42;21.63;;;9.88;;
69989;SDS011;57331;52.054;5.294;2023-04-29T07:54:10;24.45;;;9.40;;
69989;SDS011;57331;52.054;5.294;2023-04-29T07:56:37;31.92;;;9.27;;
69989;SDS011;57331;52.054;5.294;2023-04-29T07:59:06;21.05;;;8.93;;
69989;SDS011;57331;52.054;5.294;2023-04-29T08:01:33;22.43;;;8.87;;
69989;SDS011;57331;52.054;5.294;2023-04-29T08:04:00;18.17;;;7.88;;
69989;SDS011;57331;52.054;5.294;2023-04-29T08:06:32;19.63;;;9.35;;
69989;SDS011;57331;52.054;5.294;2023-04-29T08:09:00;24.52;;;10.45;;
69989;SDS011;57331;52.054;5.294;2023-04-29T08:11:28;16.15;;;7.30;;
69989;SDS011;57331;52.054;5.294;2023-04-29T08:13:55;17.97;;;8.10;;
69989;SDS011;57331;52.054;5.294;2023-04-29T08:16:24;15.68;;;7.40;;
69989;SDS011;57331;52.054;5.294;2023-04-29T08:18:52;14.38;;;7.50;;
69989;SDS011;57331;52.054;5.294;2023-04-29T08:21:19;18.20;;;7.78;;
69989;SDS011;57331;52.054;5.294;2023-04-29T08:23:47;17.42;;;7.32;;
69989;SDS011;57331;52.054;5.294;2023-04-29T08:26:13;18.80;;;7.87;;
69989;SDS011;57331;52.054;5.294;2023-04-29T08:28:40;14.80;;;6.88;;
69989;SDS011;57331;52.054;5.294;2023-04-29T08:31:14;15.32;;;7.53;;
69989;SDS011;57331;52.054;5.294;2023-04-29T08:33:45;14.85;;;7.40;;
69989;SDS011;57331;52.054;5.294;2023-04-29T08:36:12;16.70;;;7.28;;
69989;SDS011;57331;52.054;5.294;2023-04-29T08:38:39;15.77;;;6.40;;
69989;SDS011;57331;52.054;5.294;2023-04-29T08:41:07;14.63;;;7.10;;
69989;SDS011;57331;52.054;5.294;2023-04-29T08:43:37;16.83;;;7.00;;
69989;SDS011;57331;52.054;5.294;2023-04-29T08:46:07;16.88;;;7.15;;
69989;SDS011;57331;52.054;5.294;2023-04-29T08:48:36;15.35;;;6.97;;
69989;SDS011;57331;52.054;5.294;2023-04-29T08:51:10;18.07;;;7.20;;
69989;SDS011;57331;52.054;5.294;2023-04-29T08:53:39;16.30;;;6.40;;
69989;SDS011;57331;52.054;5.294;2023-04-29T08:56:12;16.73;;;6.95;;
69989;SDS011;57331;52.054;5.294;2023-04-29T08:58:42;18.27;;;6.57;;
69989;SDS011;57331;52.054;5.294;2023-04-29T09:01:11;18.33;;;6.82;;
69989;SDS011;57331;52.054;5.294;2023-04-29T09:03:42;18.70;;;5.97;;
69989;SDS011;57331;52.054;5.294;2023-04-29T09:06:15;12.30;;;6.28;;
69989;SDS011;57331;52.054;5.294;2023-04-29T09:08:42;14.90;;;6.75;;
69989;SDS011;57331;52.054;5.294;2023-04-29T09:11:10;13.60;;;5.88;;
69989;SDS011;57331;52.054;5.294;2023-04-29T09:13:38;12.32;;;6.22;;
69989;SDS011;57331;52.054;5.294;2023-04-29T09:16:09;12.93;;;6.40;;
69989;SDS011;57331;52.054;5.294;2023-04-29T09:21:25;12.30;;;6.43;;
69989;SDS011;57331;52.054;5.294;2023-04-29T09:23:54;11.60;;;5.20;;
69989;SDS011;57331;52.054;5.294;2023-04-29T09:26:23;11.30;;;5.22;;
69989;SDS011;57331;52.054;5.294;2023-04-29T09:29:06;9.90;;;4.70;;
69989;SDS011;57331;52.054;5.294;2023-04-29T09:31:39;10.55;;;5.53;;
69989;SDS011;57331;52.054;5.294;2023-04-29T09:34:07;14.88;;;5.40;;
69989;SDS011;57331;52.054;5.294;2023-04-29T09:36:48;11.18;;;4.75;;
69989;SDS011;57331;52.054;5.294;2023-04-29T09:39:22;13.27;;;5.25;;
69989;SDS011;57331;52.054;5.294;2023-04-29T09:44:20;10.05;;;4.90;;
69989;SDS011;57331;52.054;5.294;2023-04-29T09:49:32;9.63;;;4.90;;
69989;SDS011;57331;52.054;5.294;2023-04-29T09:52:05;12.93;;;5.95;;
69989;SDS011;57331;52.054;5.294;2023-04-29T09:54:34;9.87;;;4.70;;
69989;SDS011;57331;52.054;5.294;2023-04-29T09:57:04;11.32;;;4.53;;
69989;SDS011;57331;52.054;5.294;2023-04-29T09:59:36;9.10;;;4.60;;
69989;SDS011;57331;52.054;5.294;2023-04-29T10:02:05;10.93;;;5.28;;
69989;SDS011;57331;52.054;5.294;2023-04-29T10:04:41;9.40;;;4.88;;
69989;SDS011;57331;52.054;5.294;2023-04-29T10:07:15;9.17;;;4.27;;
69989;SDS011;57331;52.054;5.294;2023-04-29T10:09:43;9.82;;;4.32;;
69989;SDS011;57331;52.054;5.294;2023-04-29T10:12:16;14.52;;;5.03;;
69989;SDS011;57331;52.054;5.294;2023-04-29T10:14:53;11.00;;;4.60;;
69989;SDS011;57331;52.054;5.294;2023-04-29T10:17:35;8.15;;;4.53;;
69989;SDS011;57331;52.054;5.294;2023-04-29T10:20:11;9.30;;;4.20;;
69989;SDS011;57331;52.054;5.294;2023-04-29T10:22:44;10.75;;;4.55;;
69989;SDS011;57331;52.054;5.294;2023-04-29T10:25:18;11.88;;;4.85;;
69989;SDS011;57331;52.054;5.294;2023-04-29T10:27:46;6.82;;;3.45;;
69989;SDS011;57331;52.054;5.294;2023-04-29T10:30:17;12.55;;;5.68;;
69989;SDS011;57331;52.054;5.294;2023-04-29T10:32:46;11.27;;;5.93;;
69989;SDS011;57331;52.054;5.294;2023-04-29T10:35:18;10.40;;;5.25;;
69989;SDS011;57331;52.054;5.294;2023-04-29T10:37:48;10.20;;;5.20;;
69989;SDS011;57331;52.054;5.294;2023-04-29T10:40:17;10.23;;;4.50;;
69989;SDS011;57331;52.054;5.294;2023-04-29T10:42:51;12.68;;;6.47;;
69989;SDS011;57331;52.054;5.294;2023-04-29T10:45:28;8.97;;;4.10;;
69989;SDS011;57331;52.054;5.294;2023-04-29T10:50:33;8.35;;;5.00;;
69989;SDS011;57331;52.054;5.294;2023-04-29T10:53:25;9.75;;;3.88;;
69989;SDS011;57331;52.054;5.294;2023-04-29T10:55:57;7.80;;;3.80;;
69989;SDS011;57331;52.054;5.294;2023-04-29T11:01:09;9.25;;;3.88;;
69989;SDS011;57331;52.054;5.294;2023-04-29T11:06:25;9.18;;;4.20;;
69989;SDS011;57331;52.054;5.294;2023-04-29T11:14:23;7.35;;;3.60;;
69989;SDS011;57331;52.054;5.294;2023-04-29T11:17:14;12.48;;;5.18;;
69989;SDS011;57331;52.054;5.294;2023-04-29T11:27:16;8.75;;;4.38;;
69989;SDS011;57331;52.054;5.294;2023-04-29T11:29:45;9.50;;;4.53;;
69989;SDS011;57331;52.054;5.294;2023-04-29T11:32:15;9.45;;;4.32;;
69989;SDS011;57331;52.054;5.294;2023-04-29T11:34:47;12.15;;;5.03;;
69989;SDS011;57331;52.054;5.294;2023-04-29T11:37:18;9.07;;;3.90;;
69989;SDS011;57331;52.054;5.294;2023-04-29T11:39:49;10.48;;;4.72;;
69989;SDS011;57331;52.054;5.294;2023-04-29T11:42:20;9.05;;;4.00;;
69989;SDS011;57331;52.054;5.294;2023-04-29T11:44:50;9.25;;;3.67;;
69989;SDS011;57331;52.054;5.294;2023-04-29T11:47:19;9.52;;;4.40;;
69989;SDS011;57331;52.054;5.294;2023-04-29T11:49:49;7.37;;;3.67;;
69989;SDS011;57331;52.054;5.294;2023-04-29T11:52:16;7.28;;;3.88;;
69989;SDS011;57331;52.054;5.294;2023-04-29T11:54:43;6.93;;;3.53;;
69989;SDS011;57331;52.054;5.294;2023-04-29T11:57:13;9.75;;;4.03;;
69989;SDS011;57331;52.054;5.294;2023-04-29T11:59:41;8.23;;;3.83;;
69989;SDS011;57331;52.054;5.294;2023-04-29T12:02:10;7.17;;;3.47;;
69989;SDS011;57331;52.054;5.294;2023-04-29T12:04:45;5.97;;;3.25;;
69989;SDS011;57331;52.054;5.294;2023-04-29T12:07:15;11.95;;;4.03;;
69989;SDS011;57331;52.054;5.294;2023-04-29T12:09:43;8.43;;;3.80;;
69989;SDS011;57331;52.054;5.294;2023-04-29T12:12:12;7.57;;;3.50;;
69989;SDS011;57331;52.054;5.294;2023-04-29T12:14:40;7.83;;;3.47;;
69989;SDS011;57331;52.054;5.294;2023-04-29T12:17:08;10.88;;;3.40;;
69989;SDS011;57331;52.054;5.294;2023-04-29T12:19:35;7.93;;;3.40;;
69989;SDS011;57331;52.054;5.294;2023-04-29T12:22:04;10.07;;;4.20;;
69989;SDS011;57331;52.054;5.294;2023-04-29T12:24:37;8.57;;;3.72;;
69989;SDS011;57331;52.054;5.294;2023-04-29T12:27:08;6.83;;;3.30;;
69989;SDS011;57331;52.054;5.294;2023-04-29T12:29:36;9.90;;;3.80;;
69989;SDS011;57331;52.054;5.294;2023-04-29T12:32:04;11.85;;;6.45;;
69989;SDS011;57331;52.054;5.294;2023-04-29T12:34:31;8.40;;;3.95;;
69989;SDS011;57331;52.054;5.294;2023-04-29T12:36:58;9.23;;;4.43;;
69989;SDS011;57331;52.054;5.294;2023-04-29T12:39:26;9.43;;;4.43;;
69989;SDS011;57331;52.054;5.294;2023-04-29T12:41:54;7.13;;;3.28;;
69989;SDS011;57331;52.054;5.294;2023-04-29T12:44:24;9.15;;;4.10;;
69989;SDS011;57331;52.054;5.294;2023-04-29T12:46:51;9.40;;;3.60;;
69989;SDS011;57331;52.054;5.294;2023-04-29T12:49:19;11.13;;;3.75;;
69989;SDS011;57331;52.054;5.294;2023-04-29T12:51:47;6.80;;;2.90;;
69989;SDS011;57331;52.054;5.294;2023-04-29T12:54:14;5.78;;;3.17;;
69989;SDS011;57331;52.054;5.294;2023-04-29T12:56:41;7.00;;;3.47;;
69989;SDS011;57331;52.054;5.294;2023-04-29T12:59:08;7.70;;;3.20;;
69989;SDS011;57331;52.054;5.294;2023-04-29T13:01:37;7.00;;;3.22;;
69989;SDS011;57331;52.054;5.294;2023-04-29T13:04:04;7.60;;;3.57;;
69989;SDS011;57331;52.054;5.294;2023-04-29T13:06:34;5.65;;;3.10;;
69989;SDS011;57331;52.054;5.294;2023-04-29T13:09:06;7.18;;;3.60;;
69989;SDS011;57331;52.054;5.294;2023-04-29T13:11:43;6.88;;;3.47;;
69989;SDS011;57331;52.054;5.294;2023-04-29T13:14:10;9.15;;;3.42;;
69989;SDS011;57331;52.054;5.294;2023-04-29T13:16:37;8.07;;;3.37;;
69989;SDS011;57331;52.054;5.294;2023-04-29T13:19:04;6.85;;;3.53;;
69989;SDS011;57331;52.054;5.294;2023-04-29T13:21:52;7.53;;;3.88;;
69989;SDS011;57331;52.054;5.294;2023-04-29T13:24:19;9.13;;;3.47;;
69989;SDS011;57331;52.054;5.294;2023-04-29T13:26:46;8.20;;;3.47;;
69989;SDS011;57331;52.054;5.294;2023-04-29T13:29:17;6.73;;;3.23;;
69989;SDS011;57331;52.054;5.294;2023-04-29T13:31:44;6.63;;;3.65;;
69989;SDS011;57331;52.054;5.294;2023-04-29T13:34:11;9.10;;;3.30;;
69989;SDS011;57331;52.054;5.294;2023-04-29T13:36:38;7.13;;;3.28;;
69989;SDS011;57331;52.054;5.294;2023-04-29T13:39:05;10.88;;;3.70;;
69989;SDS011;57331;52.054;5.294;2023-04-29T13:41:32;6.73;;;3.30;;
69989;SDS011;57331;52.054;5.294;2023-04-29T13:44:01;7.10;;;3.30;;
69989;SDS011;57331;52.054;5.294;2023-04-29T13:46:30;6.55;;;3.80;;
69989;SDS011;57331;52.054;5.294;2023-04-29T13:48:58;8.48;;;3.38;;
69989;SDS011;57331;52.054;5.294;2023-04-29T13:51:28;11.55;;;4.47;;
69989;SDS011;57331;52.054;5.294;2023-04-29T13:54:15;8.93;;;3.60;;
69989;SDS011;57331;52.054;5.294;2023-04-29T13:56:47;7.30;;;3.42;;
69989;SDS011;57331;52.054;5.294;2023-04-29T13:59:17;9.50;;;3.90;;
69989;SDS011;57331;52.054;5.294;2023-04-29T14:01:47;8.80;;;3.97;;
69989;SDS011;57331;52.054;5.294;2023-04-29T14:04:19;10.10;;;4.32;;
69989;SDS011;57331;52.054;5.294;2023-04-29T14:06:46;7.27;;;3.77;;
69989;SDS011;57331;52.054;5.294;2023-04-29T14:09:13;8.13;;;3.63;;
69989;SDS011;57331;52.054;5.294;2023-04-29T14:11:40;6.35;;;3.35;;
69989;SDS011;57331;52.054;5.294;2023-04-29T14:14:06;8.27;;;3.50;;
69989;SDS011;57331;52.054;5.294;2023-04-29T14:16:33;7.70;;;3.35;;
69989;SDS011;57331;52.054;5.294;2023-04-29T14:19:00;7.20;;;3.43;;
69989;SDS011;57331;52.054;5.294;2023-04-29T14:21:29;10.15;;;4.28;;
69989;SDS011;57331;52.054;5.294;2023-04-29T14:23:58;10.60;;;4.18;;
69989;SDS011;57331;52.054;5.294;2023-04-29T14:26:27;8.90;;;4.38;;
69989;SDS011;57331;52.054;5.294;2023-04-29T14:28:55;10.80;;;4.43;;
69989;SDS011;57331;52.054;5.294;2023-04-29T14:31:23;11.47;;;4.40;;
69989;SDS011;57331;52.054;5.294;2023-04-29T14:33:54;7.30;;;3.67;;
69989;SDS011;57331;52.054;5.294;2023-04-29T14:36:22;8.82;;;4.07;;
69989;SDS011;57331;52.054;5.294;2023-04-29T14:38:49;7.90;;;4.05;;
69989;SDS011;57331;52.054;5.294;2023-04-29T14:41:16;8.32;;;4.30;;
69989;SDS011;57331;52.054;5.294;2023-04-29T14:43:43;9.07;;;4.53;;
69989;SDS011;57331;52.054;5.294;2023-04-29T14:46:10;7.38;;;3.85;;
69989;SDS011;57331;52.054;5.294;2023-04-29T14:48:37;7.50;;;4.00;;
69989;SDS011;57331;52.054;5.294;2023-04-29T14:51:04;9.43;;;3.90;;
69989;SDS011;57331;52.054;5.294;2023-04-29T14:53:31;8.35;;;4.22;;
69989;SDS011;57331;52.054;5.294;2023-04-29T14:55:59;7.97;;;3.80;;
69989;SDS011;57331;52.054;5.294;2023-04-29T14:58:26;10.88;;;4.22;;
69989;SDS011;57331;52.054;5.294;2023-04-29T15:00:53;9.30;;;4.43;;
69989;SDS011;57331;52.054;5.294;2023-04-29T15:03:20;9.73;;;4.57;;
69989;SDS011;57331;52.054;5.294;2023-04-29T15:05:49;7.35;;;4.20;;
69989;SDS011;57331;52.054;5.294;2023-04-29T15:08:17;9.67;;;5.10;;
69989;SDS011;57331;52.054;5.294;2023-04-29T15:10:44;9.77;;;4.75;;
69989;SDS011;57331;52.054;5.294;2023-04-29T15:13:12;7.38;;;4.00;;
69989;SDS011;57331;52.054;5.294;2023-04-29T15:15:39;9.30;;;4.18;;
69989;SDS011;57331;52.054;5.294;2023-04-29T15:18:06;7.22;;;3.90;;
69989;SDS011;57331;52.054;5.294;2023-04-29T15:20:34;8.90;;;4.00;;
69989;SDS011;57331;52.054;5.294;2023-04-29T15:23:04;12.20;;;5.68;;
69989;SDS011;57331;52.054;5.294;2023-04-29T15:25:32;11.18;;;5.28;;
69989;SDS011;57331;52.054;5.294;2023-04-29T15:28:00;9.18;;;4.53;;
69989;SDS011;57331;52.054;5.294;2023-04-29T15:30:30;10.02;;;5.50;;
69989;SDS011;57331;52.054;5.294;2023-04-29T15:32:57;10.47;;;5.33;;